Llanddwyn, United Kingdom
Current Conditions -  °F | °C
As of 12:50 PM on Thursday 27 Nov 2014 (Local Time) from EGOV Reporting Station
Few Clouds Few Clouds  
Wind Chill: 50°   Ceiling: Unl
Heat Index: 50°   Visibility: 6mi
Dew Point: 39°   Wind: 10mph
Humidity: 66%   Direction: 150°SSE
Pressure: 29.53"   Gusts: NA
Location:  53.16°N, 4.41°W
Report Text: EGOV 271250Z 15009KT 9999 FEW010 10/04 Q1000 BLU NOSIG
Loading
Personal Weather Stations






























Interactive Weather Map New forecast layout! Learn more

10-Day Weather Forecast

Advertisements
Track Severe Weather on mobile